sensor_id;sensor_type;location;lat;lon;timestamp;pressure;altitude;pressure_sealevel;temperature;humidity
47430;BME280;33181;49.246;7.372;2023-02-12T00:01:14;100829.75;;;6.06;82.57
47430;BME280;33181;49.246;7.372;2023-02-12T00:03:40;100829.66;;;6.09;82.61
47430;BME280;33181;49.246;7.372;2023-02-12T00:06:08;100828.88;;;6.05;82.46
47430;BME280;33181;49.246;7.372;2023-02-12T00:08:35;100824.53;;;6.06;82.45
47430;BME280;33181;49.246;7.372;2023-02-12T00:11:16;100828.97;;;6.02;82.27
47430;BME280;33181;49.246;7.372;2023-02-12T00:13:44;100830.00;;;5.96;82.50
47430;BME280;33181;49.246;7.372;2023-02-12T00:16:13;100830.09;;;5.92;83.00
47430;BME280;33181;49.246;7.372;2023-02-12T00:18:40;100831.84;;;5.91;82.83
47430;BME280;33181;49.246;7.372;2023-02-12T00:21:06;100835.31;;;5.93;82.96
47430;BME280;33181;49.246;7.372;2023-02-12T00:23:37;100839.00;;;5.83;83.65
47430;BME280;33181;49.246;7.372;2023-02-12T00:26:12;100848.13;;;5.68;84.09
47430;BME280;33181;49.246;7.372;2023-02-12T00:28:38;100844.75;;;5.65;84.79
47430;BME280;33181;49.246;7.372;2023-02-12T00:31:11;100851.97;;;5.53;85.25
47430;BME280;33181;49.246;7.372;2023-02-12T00:33:38;100857.28;;;5.50;86.37
47430;BME280;33181;49.246;7.372;2023-02-12T00:36:05;100854.59;;;5.53;86.36
47430;BME280;33181;49.246;7.372;2023-02-12T00:38:31;100858.91;;;5.54;86.20
47430;BME280;33181;49.246;7.372;2023-02-12T00:40:57;100851.00;;;5.57;86.08
47430;BME280;33181;49.246;7.372;2023-02-12T00:43:23;100863.09;;;5.62;85.81
47430;BME280;33181;49.246;7.372;2023-02-12T00:45:49;100858.59;;;5.67;85.94
47430;BME280;33181;49.246;7.372;2023-02-12T00:48:15;100857.53;;;5.74;85.41
47430;BME280;33181;49.246;7.372;2023-02-12T00:50:44;100856.56;;;5.78;85.41
47430;BME280;33181;49.246;7.372;2023-02-12T00:53:10;100854.66;;;5.83;84.96
47430;BME280;33181;49.246;7.372;2023-02-12T00:55:36;100856.41;;;5.82;84.63
47430;BME280;33181;49.246;7.372;2023-02-12T00:58:02;100860.78;;;5.82;84.47
47430;BME280;33181;49.246;7.372;2023-02-12T01:00:28;100856.63;;;5.75;84.25
47430;BME280;33181;49.246;7.372;2023-02-12T01:02:54;100854.44;;;5.60;84.88
47430;BME280;33181;49.246;7.372;2023-02-12T01:05:19;100850.38;;;5.49;85.49
47430;BME280;33181;49.246;7.372;2023-02-12T01:07:53;100853.91;;;5.45;85.91
47430;BME280;33181;49.246;7.372;2023-02-12T01:10:20;100853.22;;;5.39;85.93
47430;BME280;33181;49.246;7.372;2023-02-12T01:12:47;100851.44;;;5.41;86.18
47430;BME280;33181;49.246;7.372;2023-02-12T01:15:14;100854.63;;;5.18;87.45
47430;BME280;33181;49.246;7.372;2023-02-12T01:17:40;100856.31;;;5.20;87.67
47430;BME280;33181;49.246;7.372;2023-02-12T01:20:13;100853.63;;;5.23;87.65
47430;BME280;33181;49.246;7.372;2023-02-12T01:22:42;100857.75;;;5.32;87.31
47430;BME280;33181;49.246;7.372;2023-02-12T01:25:08;100861.16;;;5.34;87.22
47430;BME280;33181;49.246;7.372;2023-02-12T01:27:34;100861.16;;;5.34;87.54
47430;BME280;33181;49.246;7.372;2023-02-12T01:30:01;100861.94;;;5.39;87.52
47430;BME280;33181;49.246;7.372;2023-02-12T01:32:27;100863.84;;;5.31;87.44
47430;BME280;33181;49.246;7.372;2023-02-12T01:34:53;100854.41;;;5.27;87.58
47430;BME280;33181;49.246;7.372;2023-02-12T01:37:19;100854.28;;;5.31;87.89
47430;BME280;33181;49.246;7.372;2023-02-12T01:39:44;100849.91;;;5.33;87.29
47430;BME280;33181;49.246;7.372;2023-02-12T01:42:14;100862.00;;;5.36;86.56
47430;BME280;33181;49.246;7.372;2023-02-12T01:47:42;100861.75;;;5.45;86.56
47430;BME280;33181;49.246;7.372;2023-02-12T01:50:14;100862.88;;;5.35;86.96
47430;BME280;33181;49.246;7.372;2023-02-12T01:52:47;100858.50;;;5.37;86.63
47430;BME280;33181;49.246;7.372;2023-02-12T01:55:15;100860.25;;;5.35;86.67
47430;BME280;33181;49.246;7.372;2023-02-12T01:57:44;100852.50;;;5.33;86.76
47430;BME280;33181;49.246;7.372;2023-02-12T02:00:19;100854.06;;;5.41;86.78
47430;BME280;33181;49.246;7.372;2023-02-12T02:02:54;100854.34;;;5.30;87.18
47430;BME280;33181;49.246;7.372;2023-02-12T02:06:02;100852.38;;;5.38;87.31
47430;BME280;33181;49.246;7.372;2023-02-12T02:08:32;100847.31;;;5.32;87.32
47430;BME280;33181;49.246;7.372;2023-02-12T02:10:58;100844.63;;;5.35;87.56
47430;BME280;33181;49.246;7.372;2023-02-12T02:13:24;100847.09;;;5.41;87.46
47430;BME280;33181;49.246;7.372;2023-02-12T02:16:22;100851.38;;;5.42;87.34
47430;BME280;33181;49.246;7.372;2023-02-12T02:19:43;100842.66;;;5.45;87.15
47430;BME280;33181;49.246;7.372;2023-02-12T02:31:40;100827.28;;;5.34;86.88
47430;BME280;33181;49.246;7.372;2023-02-12T02:37:31;100826.38;;;5.35;86.81
47430;BME280;33181;49.246;7.372;2023-02-12T02:40:06;100825.13;;;5.17;87.38
47430;BME280;33181;49.246;7.372;2023-02-12T02:43:22;100825.22;;;5.13;87.71
47430;BME280;33181;49.246;7.372;2023-02-12T02:45:58;100827.88;;;5.11;87.75
47430;BME280;33181;49.246;7.372;2023-02-12T02:48:33;100821.63;;;5.18;88.33
47430;BME280;33181;49.246;7.372;2023-02-12T02:51:07;100817.16;;;5.23;88.31
47430;BME280;33181;49.246;7.372;2023-02-12T02:53:46;100824.72;;;5.32;87.14
47430;BME280;33181;49.246;7.372;2023-02-12T02:56:18;100814.38;;;5.29;87.59
47430;BME280;33181;49.246;7.372;2023-02-12T02:58:52;100805.78;;;5.26;87.69
47430;BME280;33181;49.246;7.372;2023-02-12T03:04:05;100815.72;;;5.11;88.10
47430;BME280;33181;49.246;7.372;2023-02-12T03:09:26;100809.44;;;5.19;88.09
47430;BME280;33181;49.246;7.372;2023-02-12T03:12:00;100810.44;;;5.13;88.33
47430;BME280;33181;49.246;7.372;2023-02-12T03:14:32;100805.22;;;5.13;88.39
47430;BME280;33181;49.246;7.372;2023-02-12T03:17:13;100813.66;;;5.23;88.59
47430;BME280;33181;49.246;7.372;2023-02-12T03:19:54;100812.94;;;5.18;88.64
47430;BME280;33181;49.246;7.372;2023-02-12T03:22:30;100810.28;;;5.19;88.05
47430;BME280;33181;49.246;7.372;2023-02-12T03:27:46;100803.09;;;5.29;88.34
47430;BME280;33181;49.246;7.372;2023-02-12T03:30:14;100800.66;;;5.23;88.44
47430;BME280;33181;49.246;7.372;2023-02-12T03:32:51;100806.47;;;5.32;87.95
47430;BME280;33181;49.246;7.372;2023-02-12T03:35:40;100808.44;;;5.24;87.74
47430;BME280;33181;49.246;7.372;2023-02-12T03:38:43;100804.81;;;5.30;87.80
47430;BME280;33181;49.246;7.372;2023-02-12T03:41:30;100807.34;;;5.33;87.35
47430;BME280;33181;49.246;7.372;2023-02-12T03:44:08;100816.81;;;5.35;87.49
47430;BME280;33181;49.246;7.372;2023-02-12T03:46:46;100810.72;;;5.37;87.43
47430;BME280;33181;49.246;7.372;2023-02-12T03:49:25;100811.44;;;5.42;87.37
47430;BME280;33181;49.246;7.372;2023-02-12T03:51:51;100811.38;;;5.45;87.37
47430;BME280;33181;49.246;7.372;2023-02-12T03:54:20;100812.13;;;5.48;87.23
47430;BME280;33181;49.246;7.372;2023-02-12T03:57:05;100810.34;;;5.50;86.96
47430;BME280;33181;49.246;7.372;2023-02-12T03:59:35;100808.66;;;5.49;86.92
47430;BME280;33181;49.246;7.372;2023-02-12T04:02:02;100813.78;;;5.52;86.86
47430;BME280;33181;49.246;7.372;2023-02-12T04:04:29;100809.44;;;5.53;86.43
47430;BME280;33181;49.246;7.372;2023-02-12T04:06:55;100814.66;;;5.51;86.19
47430;BME280;33181;49.246;7.372;2023-02-12T04:09:23;100813.78;;;5.52;86.05
47430;BME280;33181;49.246;7.372;2023-02-12T04:12:18;100818.19;;;5.50;86.18
47430;BME280;33181;49.246;7.372;2023-02-12T04:14:54;100814.81;;;5.45;86.78
47430;BME280;33181;49.246;7.372;2023-02-12T04:20:26;100826.06;;;5.47;86.48
47430;BME280;33181;49.246;7.372;2023-02-12T04:32:19;100824.84;;;5.28;88.58
47430;BME280;33181;49.246;7.372;2023-02-12T04:35:22;100832.59;;;5.29;89.02
47430;BME280;33181;49.246;7.372;2023-02-12T04:38:16;100837.03;;;5.26;89.12
47430;BME280;33181;49.246;7.372;2023-02-12T04:40:41;100835.19;;;5.31;89.59
47430;BME280;33181;49.246;7.372;2023-02-12T04:43:08;100834.19;;;5.37;89.45
47430;BME280;33181;49.246;7.372;2023-02-12T04:45:35;100834.03;;;5.43;89.35
47430;BME280;33181;49.246;7.372;2023-02-12T04:48:03;100822.47;;;5.51;88.93
47430;BME280;33181;49.246;7.372;2023-02-12T04:50:39;100824.13;;;5.55;88.75
47430;BME280;33181;49.246;7.372;2023-02-12T04:53:05;100823.09;;;5.61;88.55
47430;BME280;33181;49.246;7.372;2023-02-12T04:55:31;100818.63;;;5.66;87.81
47430;BME280;33181;49.246;7.372;2023-02-12T04:57:57;100816.88;;;5.67;87.77
47430;BME280;33181;49.246;7.372;2023-02-12T05:00:23;100822.91;;;5.69;87.18
47430;BME280;33181;49.246;7.372;2023-02-12T05:02:49;100822.91;;;5.69;86.43
47430;BME280;33181;49.246;7.372;2023-02-12T05:05:14;100821.22;;;5.68;87.02
47430;BME280;33181;49.246;7.372;2023-02-12T05:07:40;100822.06;;;5.68;86.85
47430;BME280;33181;49.246;7.372;2023-02-12T05:10:07;100824.53;;;5.73;86.81
47430;BME280;33181;49.246;7.372;2023-02-12T05:12:33;100814.06;;;5.74;86.77
47430;BME280;33181;49.246;7.372;2023-02-12T05:14:58;100817.47;;;5.76;86.46
47430;BME280;33181;49.246;7.372;2023-02-12T05:17:24;100816.63;;;5.76;86.72
47430;BME280;33181;49.246;7.372;2023-02-12T05:19:50;100813.06;;;5.78;86.55
47430;BME280;33181;49.246;7.372;2023-02-12T05:22:16;100818.50;;;5.71;86.83
47430;BME280;33181;49.246;7.372;2023-02-12T05:24:42;100816.06;;;5.65;86.57
47430;BME280;33181;49.246;7.372;2023-02-12T05:27:08;100819.63;;;5.61;87.10
47430;BME280;33181;49.246;7.372;2023-02-12T05:29:35;100811.03;;;5.58;87.33
47430;BME280;33181;49.246;7.372;2023-02-12T05:32:01;100814.59;;;5.54;87.66
47430;BME280;33181;49.246;7.372;2023-02-12T05:34:27;100808.53;;;5.54;88.38
47430;BME280;33181;49.246;7.372;2023-02-12T05:36:52;100818.75;;;5.62;87.73
47430;BME280;33181;49.246;7.372;2023-02-12T05:39:18;100818.72;;;5.63;87.74
47430;BME280;33181;49.246;7.372;2023-02-12T05:41:44;100818.94;;;5.54;88.07
47430;BME280;33181;49.246;7.372;2023-02-12T05:44:10;100811.25;;;5.49;89.17
47430;BME280;33181;49.246;7.372;2023-02-12T05:46:37;100814.81;;;5.47;89.25
47430;BME280;33181;49.246;7.372;2023-02-12T05:49:03;100822.66;;;5.45;89.42
47430;BME280;33181;49.246;7.372;2023-02-12T05:51:29;100826.00;;;5.50;89.03
47430;BME280;33181;49.246;7.372;2023-02-12T05:53:59;100822.78;;;5.41;89.21
47430;BME280;33181;49.246;7.372;2023-02-12T05:56:42;100823.06;;;5.30;90.03
47430;BME280;33181;49.246;7.372;2023-02-12T05:59:17;100825.63;;;5.31;90.07
47430;BME280;33181;49.246;7.372;2023-02-12T06:01:45;100826.53;;;5.30;90.32
47430;BME280;33181;49.246;7.372;2023-02-12T06:04:29;100824.84;;;5.28;90.86
47430;BME280;33181;49.246;7.372;2023-02-12T06:06:55;100827.31;;;5.32;91.03
47430;BME280;33181;49.246;7.372;2023-02-12T06:09:22;100836.13;;;5.28;90.79
47430;BME280;33181;49.246;7.372;2023-02-12T06:11:48;100830.06;;;5.28;91.04
47430;BME280;33181;49.246;7.372;2023-02-12T06:14:17;100826.06;;;5.15;91.89
47430;BME280;33181;49.246;7.372;2023-02-12T06:16:48;100831.22;;;5.16;91.89
47430;BME280;33181;49.246;7.372;2023-02-12T06:19:15;100833.78;;;5.18;91.85
47430;BME280;33181;49.246;7.372;2023-02-12T06:21:42;100826.69;;;5.23;92.10
47430;BME280;33181;49.246;7.372;2023-02-12T06:24:13;100828.34;;;5.27;91.76
47430;BME280;33181;49.246;7.372;2023-02-12T06:26:40;100829.00;;;5.35;91.38
47430;BME280;33181;49.246;7.372;2023-02-12T06:29:06;100834.13;;;5.38;91.29
47430;BME280;33181;49.246;7.372;2023-02-12T06:31:35;100830.72;;;5.36;91.31
47430;BME280;33181;49.246;7.372;2023-02-12T06:34:06;100835.69;;;5.45;90.76
47430;BME280;33181;49.246;7.372;2023-02-12T06:36:33;100834.03;;;5.43;90.96
47430;BME280;33181;49.246;7.372;2023-02-12T06:39:03;100830.44;;;5.47;91.44
47430;BME280;33181;49.246;7.372;2023-02-12T06:41:29;100837.25;;;5.52;91.04
47430;BME280;33181;49.246;7.372;2023-02-12T06:43:55;100836.25;;;5.56;90.72
47430;BME280;33181;49.246;7.372;2023-02-12T06:46:21;100842.22;;;5.62;90.38
47430;BME280;33181;49.246;7.372;2023-02-12T06:48:47;100846.44;;;5.66;90.18
47430;BME280;33181;49.246;7.372;2023-02-12T06:51:16;100852.50;;;5.68;89.63
47430;BME280;33181;49.246;7.372;2023-02-12T06:53:43;100849.72;;;5.74;88.84
47430;BME280;33181;49.246;7.372;2023-02-12T06:56:11;100850.06;;;5.60;89.45
47430;BME280;33181;49.246;7.372;2023-02-12T06:58:44;100849.34;;;5.55;89.62
47430;BME280;33181;49.246;7.372;2023-02-12T07:03:45;100848.16;;;5.67;89.30
47430;BME280;33181;49.246;7.372;2023-02-12T07:06:12;100848.97;;;5.69;88.74
47430;BME280;33181;49.246;7.372;2023-02-12T07:08:38;100855.19;;;5.65;89.60
47430;BME280;33181;49.246;7.372;2023-02-12T07:11:04;100857.63;;;5.71;89.99
47430;BME280;33181;49.246;7.372;2023-02-12T07:13:30;100859.41;;;5.69;90.51
47430;BME280;33181;49.246;7.372;2023-02-12T07:15:55;100859.25;;;5.75;90.80
47430;BME280;33181;49.246;7.372;2023-02-12T07:18:21;100860.09;;;5.75;90.84
47430;BME280;33181;49.246;7.372;2023-02-12T07:20:47;100860.06;;;5.77;90.75
47430;BME280;33181;49.246;7.372;2023-02-12T07:23:13;100861.47;;;5.89;90.52
47430;BME280;33181;49.246;7.372;2023-02-12T07:25:39;100857.25;;;5.85;90.53
47430;BME280;33181;49.246;7.372;2023-02-12T07:28:05;100860.88;;;5.79;91.53
47430;BME280;33181;49.246;7.372;2023-02-12T07:30:30;100860.00;;;5.78;91.88
47430;BME280;33181;49.246;7.372;2023-02-12T07:32:56;100857.47;;;5.77;91.75
47430;BME280;33181;49.246;7.372;2023-02-12T07:35:22;100863.84;;;5.65;92.45
47430;BME280;33181;49.246;7.372;2023-02-12T07:37:48;100868.41;;;5.57;94.12
47430;BME280;33181;49.246;7.372;2023-02-12T07:40:13;100863.03;;;5.63;94.14
47430;BME280;33181;49.246;7.372;2023-02-12T07:42:41;100862.09;;;5.66;94.06
47430;BME280;33181;49.246;7.372;2023-02-12T07:45:07;100862.19;;;5.61;94.64
47430;BME280;33181;49.246;7.372;2023-02-12T07:47:34;100865.44;;;5.71;94.59
47430;BME280;33181;49.246;7.372;2023-02-12T07:50:03;100855.72;;;5.77;94.32
47430;BME280;33181;49.246;7.372;2023-02-12T07:52:29;100859.28;;;5.73;93.89
47430;BME280;33181;49.246;7.372;2023-02-12T07:54:55;100863.56;;;5.76;93.99
47430;BME280;33181;49.246;7.372;2023-02-12T07:57:21;100867.91;;;5.77;94.22
47430;BME280;33181;49.246;7.372;2023-02-12T07:59:46;100865.28;;;5.77;94.10
47430;BME280;33181;49.246;7.372;2023-02-12T08:02:12;100860.75;;;5.84;94.14
47430;BME280;33181;49.246;7.372;2023-02-12T08:04:38;100869.28;;;5.89;93.28
47430;BME280;33181;49.246;7.372;2023-02-12T08:07:04;100858.72;;;5.96;92.45
47430;BME280;33181;49.246;7.372;2023-02-12T08:09:31;100861.22;;;5.99;92.51
47430;BME280;33181;49.246;7.372;2023-02-12T08:11:57;100857.53;;;6.07;92.42
47430;BME280;33181;49.246;7.372;2023-02-12T08:14:25;100859.16;;;6.11;91.91
47430;BME280;33181;49.246;7.372;2023-02-12T08:16:51;100866.97;;;6.11;91.76
47430;BME280;33181;49.246;7.372;2023-02-12T08:19:18;100863.28;;;6.19;91.31
47430;BME280;33181;49.246;7.372;2023-02-12T08:21:44;100862.06;;;6.31;90.49
47430;BME280;33181;49.246;7.372;2023-02-12T08:24:11;100863.78;;;6.32;89.93
47430;BME280;33181;49.246;7.372;2023-02-12T08:26:39;100861.31;;;6.28;90.25
47430;BME280;33181;49.246;7.372;2023-02-12T08:29:18;100863.94;;;6.26;90.81
47430;BME280;33181;49.246;7.372;2023-02-12T08:31:47;100868.91;;;6.35;91.29
47430;BME280;33181;49.246;7.372;2023-02-12T08:34:59;100854.00;;;6.39;90.44
47430;BME280;33181;49.246;7.372;2023-02-12T08:37:24;100858.56;;;6.32;90.33
47430;BME280;33181;49.246;7.372;2023-02-12T08:39:50;100859.41;;;6.33;90.68
47430;BME280;33181;49.246;7.372;2023-02-12T08:42:16;100863.53;;;6.40;90.71
47430;BME280;33181;49.246;7.372;2023-02-12T08:44:41;100863.94;;;6.56;89.95
47430;BME280;33181;49.246;7.372;2023-02-12T08:47:07;100865.59;;;6.58;89.89
47430;BME280;33181;49.246;7.372;2023-02-12T08:49:34;100871.22;;;6.74;89.79
47430;BME280;33181;49.246;7.372;2023-02-12T08:52:00;100866.34;;;6.63;89.83
47430;BME280;33181;49.246;7.372;2023-02-12T08:54:29;100861.22;;;6.60;90.77
47430;BME280;33181;49.246;7.372;2023-02-12T08:56:57;100850.78;;;6.59;91.02
47430;BME280;33181;49.246;7.372;2023-02-12T08:59:24;100851.50;;;6.64;91.38
47430;BME280;33181;49.246;7.372;2023-02-12T09:01:51;100858.34;;;6.68;91.53
47430;BME280;33181;49.246;7.372;2023-02-12T09:04:22;100852.81;;;6.79;91.48
47430;BME280;33181;49.246;7.372;2023-02-12T09:06:49;100852.47;;;6.89;90.99
47430;BME280;33181;49.246;7.372;2023-02-12T09:09:16;100851.69;;;6.87;91.72
47430;BME280;33181;49.246;7.372;2023-02-12T09:11:42;100859.63;;;6.83;92.52
47430;BME280;33181;49.246;7.372;2023-02-12T09:14:13;100851.44;;;6.93;91.88
47430;BME280;33181;49.246;7.372;2023-02-12T09:16:39;100859.44;;;6.89;92.71
47430;BME280;33181;49.246;7.372;2023-02-12T09:19:06;100847.31;;;6.88;93.44
47430;BME280;33181;49.246;7.372;2023-02-12T09:21:33;100853.97;;;6.96;92.93
47430;BME280;33181;49.246;7.372;2023-02-12T09:24:00;100856.28;;;7.06;92.55
47430;BME280;33181;49.246;7.372;2023-02-12T09:26:26;100856.72;;;7.20;92.09
47430;BME280;33181;49.246;7.372;2023-02-12T09:28:53;100855.69;;;7.24;91.46
47430;BME280;33181;49.246;7.372;2023-02-12T09:31:26;100854.84;;;7.24;91.65
47430;BME280;33181;49.246;7.372;2023-02-12T09:33:58;100854.81;;;7.25;91.46
47430;BME280;33181;49.246;7.372;2023-02-12T09:36:24;100858.97;;;7.04;92.45
47430;BME280;33181;49.246;7.372;2023-02-12T09:38:50;100856.81;;;7.17;92.08
47430;BME280;33181;49.246;7.372;2023-02-12T09:47:43;100861.78;;;7.25;92.42
47430;BME280;33181;49.246;7.372;2023-02-12T09:50:47;100855.81;;;7.21;91.92
47430;BME280;33181;49.246;7.372;2023-02-12T09:53:24;100869.28;;;7.35;91.49
47430;BME280;33181;49.246;7.372;2023-02-12T09:55:50;100872.75;;;7.36;91.11
47430;BME280;33181;49.246;7.372;2023-02-12T09:58:23;100864.94;;;7.34;91.30
47430;BME280;33181;49.246;7.372;2023-02-12T10:00:55;100860.72;;;7.30;91.50
47430;BME280;33181;49.246;7.372;2023-02-12T10:03:21;100864.06;;;7.35;91.22
47430;BME280;33181;49.246;7.372;2023-02-12T10:06:00;100863.78;;;7.43;90.62
47430;BME280;33181;49.246;7.372;2023-02-12T10:20:40;100866.38;;;7.45;89.20
47430;BME280;33181;49.246;7.372;2023-02-12T10:26:24;100856.88;;;7.40;88.39
47430;BME280;33181;49.246;7.372;2023-02-12T10:28:54;100855.59;;;7.54;88.35
47430;BME280;33181;49.246;7.372;2023-02-12T10:31:32;100867.03;;;7.50;87.16
47430;BME280;33181;49.246;7.372;2023-02-12T10:33:59;100853.72;;;7.57;86.97
47430;BME280;33181;49.246;7.372;2023-02-12T10:36:53;100857.19;;;7.58;86.93
47430;BME280;33181;49.246;7.372;2023-02-12T10:39:26;100854.63;;;7.56;86.85
47430;BME280;33181;49.246;7.372;2023-02-12T10:42:02;100862.63;;;7.77;86.50
47430;BME280;33181;49.246;7.372;2023-02-12T10:44:31;100860.03;;;7.77;86.30
47430;BME280;33181;49.246;7.372;2023-02-12T10:46:56;100866.28;;;7.73;86.26
47430;BME280;33181;49.246;7.372;2023-02-12T10:49:22;100865.16;;;7.80;85.54
47430;BME280;33181;49.246;7.372;2023-02-12T10:52:11;100846.88;;;7.78;85.53
47430;BME280;33181;49.246;7.372;2023-02-12T10:54:46;100852.91;;;7.80;85.22
47430;BME280;33181;49.246;7.372;2023-02-12T10:57:33;100836.38;;;7.80;86.19
47430;BME280;33181;49.246;7.372;2023-02-12T11:05:32;100832.59;;;7.88;85.57
47430;BME280;33181;49.246;7.372;2023-02-12T11:07:58;100827.47;;;7.85;84.86
47430;BME280;33181;49.246;7.372;2023-02-12T11:10:28;100824.25;;;7.77;84.86
47430;BME280;33181;49.246;7.372;2023-02-12T11:12:58;100821.59;;;8.02;84.43
47430;BME280;33181;49.246;7.372;2023-02-12T11:15:36;100809.88;;;8.12;83.44
47430;BME280;33181;49.246;7.372;2023-02-12T11:18:07;100812.34;;;8.17;83.79
47430;BME280;33181;49.246;7.372;2023-02-12T11:20:49;100808.56;;;8.48;81.72
47430;BME280;33181;49.246;7.372;2023-02-12T11:29:21;100817.16;;;8.28;81.49
47430;BME280;33181;49.246;7.372;2023-02-12T11:32:02;100816.84;;;8.13;82.50
47430;BME280;33181;49.246;7.372;2023-02-12T11:34:29;100812.78;;;8.28;82.33
47430;BME280;33181;49.246;7.372;2023-02-12T11:36:56;100812.91;;;8.02;82.96
47430;BME280;33181;49.246;7.372;2023-02-12T11:39:34;100808.28;;;7.85;83.91
47430;BME280;33181;49.246;7.372;2023-02-12T11:42:19;100805.09;;;8.00;83.83
47430;BME280;33181;49.246;7.372;2023-02-12T11:44:58;100816.25;;;8.05;83.37
47430;BME280;33181;49.246;7.372;2023-02-12T11:47:31;100802.53;;;7.99;83.56
47430;BME280;33181;49.246;7.372;2023-02-12T11:50:14;100811.25;;;7.99;83.83
47430;BME280;33181;49.246;7.372;2023-02-12T11:52:42;100800.59;;;8.04;82.98
47430;BME280;33181;49.246;7.372;2023-02-12T11:55:30;100805.16;;;7.99;83.03
47430;BME280;33181;49.246;7.372;2023-02-12T11:58:15;100796.63;;;8.17;83.19
47430;BME280;33181;49.246;7.372;2023-02-12T12:07:04;100790.47;;;8.42;80.77
47430;BME280;33181;49.246;7.372;2023-02-12T12:09:48;100788.19;;;8.32;81.05
47430;BME280;33181;49.246;7.372;2023-02-12T12:12:22;100787.31;;;8.32;81.23
47430;BME280;33181;49.246;7.372;2023-02-12T12:14:58;100783.63;;;8.38;81.02
47430;BME280;33181;49.246;7.372;2023-02-12T12:18:00;100778.06;;;8.47;81.38
47430;BME280;33181;49.246;7.372;2023-02-12T12:21:07;100778.31;;;8.63;80.30
47430;BME280;33181;49.246;7.372;2023-02-12T12:23:43;100779.59;;;8.52;80.78
47430;BME280;33181;49.246;7.372;2023-02-12T12:26:31;100773.25;;;8.34;81.79
47430;BME280;33181;49.246;7.372;2023-02-12T12:29:25;100770.19;;;8.69;81.06
47430;BME280;33181;49.246;7.372;2023-02-12T12:32:00;100773.84;;;8.87;79.15
47430;BME280;33181;49.246;7.372;2023-02-12T12:34:28;100769.28;;;8.70;79.48
47430;BME280;33181;49.246;7.372;2023-02-12T12:40:43;100757.19;;;8.88;79.16
47430;BME280;33181;49.246;7.372;2023-02-12T12:46:12;100765.56;;;8.75;78.96
47430;BME280;33181;49.246;7.372;2023-02-12T12:48:52;100766.84;;;8.87;79.61
47430;BME280;33181;49.246;7.372;2023-02-12T12:57:16;100752.75;;;9.10;78.25
47430;BME280;33181;49.246;7.372;2023-02-12T13:00:24;100753.03;;;9.04;77.85
47430;BME280;33181;49.246;7.372;2023-02-12T13:03:31;100756.47;;;8.84;78.14
47430;BME280;33181;49.246;7.372;2023-02-12T13:15:02;100737.13;;;9.09;77.71
47430;BME280;33181;49.246;7.372;2023-02-12T13:23:29;100737.63;;;8.96;77.85
47430;BME280;33181;49.246;7.372;2023-02-12T13:26:17;100730.59;;;8.97;77.93
47430;BME280;33181;49.246;7.372;2023-02-12T13:28:53;100726.41;;;9.13;77.68
47430;BME280;33181;49.246;7.372;2023-02-12T13:31:23;100732.13;;;9.23;77.36
47430;BME280;33181;49.246;7.372;2023-02-12T13:34:00;100731.03;;;9.68;76.36
47430;BME280;33181;49.246;7.372;2023-02-12T13:36:27;100732.09;;;9.83;75.10
47430;BME280;33181;49.246;7.372;2023-02-12T13:41:56;100724.16;;;9.65;74.87
47430;BME280;33181;49.246;7.372;2023-02-12T13:45:16;100714.09;;;9.75;74.76
47430;BME280;33181;49.246;7.372;2023-02-12T13:47:58;100712.22;;;9.77;74.48
47430;BME280;33181;49.246;7.372;2023-02-12T13:53:28;100716.47;;;9.80;74.25
47430;BME280;33181;49.246;7.372;2023-02-12T13:58:44;100711.59;;;9.91;74.55
47430;BME280;33181;49.246;7.372;2023-02-12T14:01:38;100722.00;;;9.73;74.72
47430;BME280;33181;49.246;7.372;2023-02-12T14:04:28;100714.81;;;9.58;74.92
47430;BME280;33181;49.246;7.372;2023-02-12T14:07:06;100712.00;;;9.63;75.07
47430;BME280;33181;49.246;7.372;2023-02-12T14:12:16;100710.34;;;9.41;76.03
47430;BME280;33181;49.246;7.372;2023-02-12T14:20:37;100705.28;;;9.95;73.91
47430;BME280;33181;49.246;7.372;2023-02-12T14:23:24;100703.03;;;9.87;73.98
47430;BME280;33181;49.246;7.372;2023-02-12T14:26:03;100694.91;;;9.73;74.50
47430;BME280;33181;49.246;7.372;2023-02-12T14:28:39;100694.72;;;9.96;73.54
47430;BME280;33181;49.246;7.372;2023-02-12T14:39:04;100695.47;;;10.17;72.82
47430;BME280;33181;49.246;7.372;2023-02-12T14:41:36;100687.38;;;10.22;72.01
47430;BME280;33181;49.246;7.372;2023-02-12T14:46:58;100694.28;;;10.25;72.32
47430;BME280;33181;49.246;7.372;2023-02-12T14:49:38;100693.22;;;10.10;72.83
47430;BME280;33181;49.246;7.372;2023-02-12T14:52:18;100681.06;;;10.07;72.92
47430;BME280;33181;49.246;7.372;2023-02-12T14:55:05;100688.53;;;9.97;72.70
47430;BME280;33181;49.246;7.372;2023-02-12T14:57:39;100680.13;;;10.08;72.85
47430;BME280;33181;49.246;7.372;2023-02-12T15:02:52;100681.16;;;10.06;72.72
47430;BME280;33181;49.246;7.372;2023-02-12T15:05:29;100679.41;;;9.87;73.27
47430;BME280;33181;49.246;7.372;2023-02-12T15:16:53;100690.66;;;9.89;73.54
47430;BME280;33181;49.246;7.372;2023-02-12T15:19:37;100676.78;;;9.87;73.49
47430;BME280;33181;49.246;7.372;2023-02-12T15:22:22;100685.84;;;9.80;73.43
47430;BME280;33181;49.246;7.372;2023-02-12T15:24:49;100678.69;;;9.84;73.88
47430;BME280;33181;49.246;7.372;2023-02-12T15:27:16;100676.81;;;9.86;73.67
47430;BME280;33181;49.246;7.372;2023-02-12T15:29:51;100680.00;;;9.73;73.77
47430;BME280;33181;49.246;7.372;2023-02-12T15:32:25;100679.31;;;9.70;73.86
47430;BME280;33181;49.246;7.372;2023-02-12T15:34:53;100688.03;;;9.70;73.92
47430;BME280;33181;49.246;7.372;2023-02-12T15:37:29;100681.75;;;9.74;73.99
47430;BME280;33181;49.246;7.372;2023-02-12T15:39:59;100683.00;;;9.85;73.83
47430;BME280;33181;49.246;7.372;2023-02-12T15:42:35;100675.84;;;9.69;73.87
47430;BME280;33181;49.246;7.372;2023-02-12T15:47:38;100679.81;;;9.59;74.02
47430;BME280;33181;49.246;7.372;2023-02-12T15:50:13;100679.88;;;9.58;74.02
47430;BME280;33181;49.246;7.372;2023-02-12T15:52:42;100677.38;;;9.55;74.53
47430;BME280;33181;49.246;7.372;2023-02-12T15:55:17;100672.97;;;9.55;74.26